Flight Track Log - Related Links

Times and Time Zones

All times are in EDT time to prevent confusion due to time zone crossing. See the N465TP flight status page for this flight to view local times or setup timezone preferences in your user account.

Time Position Orientation Groundspeed Altitude Reporting Facility
EDT Latitude Longitude Course Direction KTS MPH feet Rate Location/Type
Fri 03:32:05 PM 37.8047 -119.5153 266° West 270 311 22,700  Level Oakland Center
Fri 03:33:07 PM 37.7939 -119.6078 262° West 268 308 22,100 -585 Descending Oakland Center
Fri 03:34:08 PM 37.7833 -119.6956 261° West 258 297 21,500 -585 Descending Oakland Center
Fri 03:35:10 PM 37.7733 -119.7800 262° West 248 285 20,900 -532 Descending Oakland Center
Fri 03:36:12 PM 37.7622 -119.8664 261° West 248 285 20,400 -435 Descending Oakland Center
Fri 03:37:00 PM 37.8936 -119.3029 266° West  Level Estimated
Fri 03:37:14 PM 37.7522 -119.9508 262° West 246 283 20,000  Level Oakland Center
Fri 03:38:15 PM 37.7417 -120.0494 262° West 239 275 20,000  Level Oakland Center
Fri 03:39:17 PM 37.7314 -120.1339 261° West 240 276 20,000 -290 Level Oakland Center
Fri 03:40:19 PM 37.7206 -120.2208 261° West 248 285 19,400 -629 Descending Oakland Center
Fri 03:41:21 PM 37.7103 -120.3072 261° West 249 287 18,700 -629 Descending Oakland Center
Fri 03:42:23 PM 37.6986 -120.3906 260° West 245 282 18,100 -488 Descending Oakland Center
Fri 03:43:24 PM 37.6892 -120.4703 262° West 236 272 17,700 -439 Descending Oakland Center
Fri 03:44:26 PM 37.6786 -120.5572 261° West 238 274 17,200 -387 Descending Oakland Center
Fri 03:45:28 PM 37.6661 -120.6542 261° West 241 277 16,900 -488 Descending Oakland Center
Fri 03:46:29 PM 37.6556 -120.7394 261° West 244 281 16,200 -683 Descending Oakland Center
Fri 03:47:31 PM 37.6467 -120.8167 262° West 229 264 15,500 -677 Descending Oakland Center
Fri 03:48:33 PM 37.6361 -120.8931 260° West 222 255 14,800 -677 Descending Oakland Center
Fri 03:49:35 PM 37.6269 -120.9714 262° West 224 258 14,100 -387 Descending Oakland Center
Fri 03:50:37 PM 37.6178 -121.0483 261° West 224 258 14,000 -48 Descending Oakland Center
Fri 03:51:39 PM 37.6081 -121.1261 261° West 224 258 14,000 -48 Level Oakland Center
Fri 03:52:41 PM 37.5994 -121.2069 262° West 225 259 13,900 -146 Descending Oakland Center
Fri 03:53:42 PM 37.5911 -121.2850 262° West 225 259 13,700 -390 Descending Oakland Center
Fri 03:54:44 PM 37.5800 -121.3789 262° West 226 260 13,100 -567 Descending Oakland Center
Fri 03:55:49 PM 37.5667 -121.4500 257° West 218 251 12,500 -629 Descending Northern TRACON
Fri 03:56:48 PM 37.5667 -121.5333 270° West 219 252 11,800 -650 Descending Northern TRACON
Fri 03:57:49 PM 37.5500 -121.6167 256° West 220 253 11,200 -744 Descending Northern TRACON
Fri 03:58:49 PM 37.5500 -121.6833 270° West 208 239 10,300 -905 Descending Northern TRACON
Fri 03:59:55 PM 37.5333 -121.7667 256° West 215 247 9,300 -900 Descending Northern TRACON
Fri 04:00:49 PM 37.5167 -121.8333 253° West 207 238 8,500 -789 Descending Northern TRACON
Fri 04:01:49 PM 37.5167 -121.9000 270° West 204 235 7,800 -700 Descending Northern TRACON
Fri 04:02:49 PM 37.5000 -121.9667 253° West 205 236 7,100 -730 Descending Northern TRACON
Fri 04:03:44 PM 37.5000 -122.0333 270° West 209 241 6,400 -850 Descending Northern TRACON
Fri 04:04:49 PM 37.5333 -122.1000 302° West 201 231 5,400 -952 Descending Northern TRACON
Fri 04:05:50 PM 37.5500 -122.1667 288° West 190 219 4,400 -1,043 Descending Northern TRACON
Fri 04:06:44 PM 37.5667 -122.2167 293° West 176 203 3,400 -1,105 Descending Northern TRACON
Fri 04:07:44 PM 37.5833 -122.2667 293° West 166 191 2,300 -1,286 Descending Northern TRACON
Fri 04:08:50 PM 37.6000 -122.3167 293° West 145 167 700 -805 Descending Northern TRACON
Fri 04:10:13 PM 37.6189 -122.3806 290° West 154 177 300 -289 Descending Oakland Center
Fri 04:12:00 PM 37.6167 -122.3667 270° West  Level FlightAware

Login

Don't have an account? Register now (free) for customized features, flight alerts, and more!